Historyczne dane pomiarowe

Dodano dane terminowe – wersja testowa.

Dane z okresu 1951-2019

Wersja bazy: 1.34 [2019-03-16, lista zmian], aktualizacja planowana na 2019-04-15

Dane meteo z obszaru Polski uzyskane na podstawie danych udostępnionych przez Instytut Meteorologii i Gospodarki Wodnej – Państwowy Instytut Badawczy.

 

Wybierz Datę:    

       

TemperaturaWilgotnośćZachmurzenieWiatrCiśnienieWidzialnośćZjawiska
 Data    tng td wb rh cc ccl cl cm ch dir g1 g2 mslp ppp      
1999-08-14 00:00:00 12.7--- 11.5 12.092wxwx0wx--1008.3 986.2 0.0---wx
1999-08-14 01:00:00 12.0--- 11.1 11.594wxwx0wx--1008.3 986.1----wx
1999-08-14 02:00:00 11.2--- 10.5 10.895wxwxwx0wx--1008.0 985.8----wx
1999-08-14 03:00:00 9.5--- 8.9 9.296wxwxwx0wx--1008.0 985.6----wx
1999-08-14 04:00:00 8.8--- 8.2 8.596wxwxwx0wx--1008.0 985.6----wx
1999-08-14 05:00:00 10.8--- 10.1 10.495wxwxwxwx0wx--1007.8 985.5----wx
1999-08-14 06:00:00 14.2--- 12.0 12.986wxwxwxwx0wx--1007.7 985.7 0.0---wx
1999-08-14 07:00:00 15.5--- 12.1 13.580wxwxwx1wx--1007.6 985.7----wx
1999-08-14 08:00:00 17.7--- 10.8 13.764wxwxwxwxwx2wx--1007.4 985.7----wx
1999-08-14 09:00:00 18.2--- 12.5 14.869wxwxwxwxwx2wx--1007.3 985.6----wx
1999-08-14 10:00:00 20.0--- 13.4 16.066wxwxwxwxwx2wx--1007.1 985.6----wx
1999-08-14 11:00:00 17.2--- 11.7 14.070wxwxwx2wx--1007.3 985.5----wx
1999-08-14 12:00:00 18.1--- 11.2 14.164wxwxwx3wx--1007.2 985.5 0.0---wx
1999-08-14 13:00:00 19.1--- 10.6 14.258wxwxwx2wx--1006.8 985.2----wx
1999-08-14 14:00:00 19.4--- 11.8 14.961wxwxwx3wx--1006.8 985.2----wx
1999-08-14 15:00:00 18.3--- 11.5 14.364wxwxwx3wx--1006.8 985.1----wx
1999-08-14 16:00:00 17.7--- 11.5 14.167wxwxwx4wx--1006.9 985.2----wx
1999-08-14 17:00:00 17.2--- 12.1 14.272wxwxwx4wx--1006.9 985.2----wx
1999-08-14 18:00:00 15.9--- 11.6 13.476wxwxwx2wx--1007.4 985.5 0.0---wx
1999-08-14 19:00:00 14.1--- 11.7 12.785wxwxwx1wx--1007.6 985.6----wx
1999-08-14 20:00:00 13.5--- 12.5 12.993wxwxwx1wx--1007.6 985.6----wx
1999-08-14 21:00:00 13.2--- 12.3 12.795wxwxwx0wx--1007.6 985.5----wx
1999-08-14 22:00:00 12.2--- 11.3 11.794wxwx0wx--1007.6 985.5----wx
1999-08-14 23:00:00 11.7--- 10.8 11.294wxwx0wx--1007.7 985.5----wx

 

Źródłem pochodzenia danych jest Instytut Meteorologii i Gospodarki Wodnej – Państwowy Instytut Badawczy. Dane Instytutu Meteorologii i Gospodarki Wodnej – Państwowego Instytutu Badawczego zostały przetworzone.

Dane źródłowe można odnaleźć na stronie https://dane.imgw.pl